createdAt,value
2023-02-14T00:01:20.612Z,5.20
2023-02-14T00:03:49.400Z,5.24
2023-02-14T00:06:17.243Z,5.19
2023-02-14T00:08:44.870Z,5.26
2023-02-14T00:11:13.871Z,5.17
2023-02-14T00:14:01.349Z,5.06
2023-02-14T00:16:28.838Z,5.13
2023-02-14T00:19:05.556Z,5.12
2023-02-14T00:21:38.389Z,5.03
2023-02-14T00:24:08.622Z,5.00
2023-02-14T00:26:38.596Z,5.11
2023-02-14T00:29:12.652Z,5.20
2023-02-14T00:31:40.877Z,5.16
2023-02-14T00:34:09.210Z,5.07
2023-02-14T00:36:37.319Z,5.01
2023-02-14T00:39:06.215Z,5.04
2023-02-14T00:41:34.068Z,5.03
2023-02-14T00:44:02.394Z,5.09
2023-02-14T00:46:29.781Z,5.03
2023-02-14T00:48:57.425Z,4.94
2023-02-14T00:51:24.971Z,4.99
2023-02-14T00:53:52.660Z,5.00
2023-02-14T00:56:20.975Z,4.99
2023-02-14T00:58:48.728Z,4.94
2023-02-14T01:01:19.158Z,4.99
2023-02-14T01:03:46.847Z,4.93
2023-02-14T01:06:14.430Z,4.93
2023-02-14T01:08:41.893Z,4.87
2023-02-14T01:11:16.924Z,4.99
2023-02-14T01:13:47.851Z,4.85
2023-02-14T01:16:17.990Z,4.83
2023-02-14T01:18:46.444Z,4.85
2023-02-14T01:21:27.677Z,4.98
2023-02-14T01:23:58.844Z,4.93
2023-02-14T01:26:27.463Z,4.92
2023-02-14T01:28:56.032Z,4.90
2023-02-14T01:31:26.566Z,4.89
2023-02-14T01:33:54.747Z,4.97
2023-02-14T01:36:29.929Z,4.86
2023-02-14T01:39:00.326Z,4.72
2023-02-14T01:41:31.384Z,4.72
2023-02-14T01:44:02.088Z,4.67
2023-02-14T01:46:32.546Z,4.61
2023-02-14T01:49:09.188Z,4.64
2023-02-14T01:51:41.178Z,4.68
2023-02-14T01:54:09.151Z,4.74
2023-02-14T01:56:41.544Z,4.71
2023-02-14T01:59:12.694Z,4.75
2023-02-14T02:01:44.227Z,4.77
2023-02-14T02:04:15.905Z,4.79
2023-02-14T02:06:47.127Z,4.94
2023-02-14T02:09:27.537Z,4.82
2023-02-14T02:11:55.431Z,4.73
2023-02-14T02:14:23.669Z,4.74
2023-02-14T02:17:10.257Z,4.88
2023-02-14T02:20:10.904Z,4.79
2023-02-14T02:23:19.466Z,4.71
2023-02-14T02:26:15.304Z,4.49
2023-02-14T02:29:09.520Z,4.47
2023-02-14T02:31:45.268Z,4.36
2023-02-14T02:34:40.307Z,4.21
2023-02-14T02:37:28.741Z,4.10
2023-02-14T02:40:07.969Z,4.14
2023-02-14T02:43:16.647Z,4.13
2023-02-14T02:46:14.692Z,3.95
2023-02-14T02:48:59.732Z,3.96
2023-02-14T02:52:18.885Z,3.94
2023-02-14T02:54:55.547Z,4.02
2023-02-14T02:57:29.648Z,3.89
2023-02-14T02:59:59.079Z,3.85
2023-02-14T03:02:57.332Z,3.78
2023-02-14T03:05:27.364Z,3.84
2023-02-14T03:07:54.744Z,3.86
2023-02-14T03:10:27.365Z,3.78
2023-02-14T03:13:19.734Z,3.83
2023-02-14T03:15:51.524Z,3.68
2023-02-14T03:18:22.062Z,3.45
2023-02-14T03:20:55.648Z,3.40
2023-02-14T03:23:32.226Z,3.52
2023-02-14T03:26:01.136Z,3.53
2023-02-14T03:28:45.862Z,3.54
2023-02-14T03:31:33.546Z,3.59
2023-02-14T03:34:14.577Z,3.63
2023-02-14T03:36:50.701Z,3.59
2023-02-14T03:39:27.103Z,3.16
2023-02-14T03:42:06.190Z,3.53
2023-02-14T03:44:36.429Z,3.58
2023-02-14T03:47:13.736Z,3.48
2023-02-14T03:49:46.866Z,3.41
2023-02-14T03:52:15.639Z,3.33
2023-02-14T03:54:46.429Z,3.16
2023-02-14T03:57:20.792Z,3.04
2023-02-14T03:59:48.735Z,3.04
2023-02-14T04:02:21.705Z,2.98
2023-02-14T04:04:51.674Z,2.82
2023-02-14T04:07:22.303Z,2.97
2023-02-14T04:09:50.544Z,3.05
2023-02-14T04:12:32.353Z,3.05
2023-02-14T04:15:03.816Z,2.94
2023-02-14T04:17:50.045Z,2.79
2023-02-14T04:20:17.482Z,2.56
2023-02-14T04:22:46.416Z,2.65
2023-02-14T04:25:14.622Z,2.72
2023-02-14T04:28:01.144Z,2.74
2023-02-14T04:30:28.558Z,2.76
2023-02-14T04:32:55.887Z,2.89
2023-02-14T04:35:23.229Z,2.68
2023-02-14T04:37:50.544Z,2.58
2023-02-14T04:40:18.056Z,2.61
2023-02-14T04:42:46.496Z,2.68
2023-02-14T04:45:14.710Z,2.64
2023-02-14T04:47:42.036Z,2.53
2023-02-14T04:50:10.142Z,2.51
2023-02-14T04:52:37.672Z,2.41
2023-02-14T04:55:05.869Z,2.33
2023-02-14T04:57:33.246Z,2.30
2023-02-14T05:00:00.874Z,2.57
2023-02-14T05:02:28.195Z,2.63
2023-02-14T05:04:55.545Z,2.47
2023-02-14T05:07:22.828Z,2.56
2023-02-14T05:09:50.201Z,2.60
2023-02-14T05:12:17.581Z,2.65
2023-02-14T05:14:45.341Z,2.59
2023-02-14T05:17:12.806Z,2.58
2023-02-14T05:19:40.301Z,2.58
2023-02-14T05:22:07.621Z,2.26
2023-02-14T05:24:37.340Z,2.04
2023-02-14T05:27:04.645Z,2.16
2023-02-14T05:29:31.973Z,2.08
2023-02-14T05:31:59.503Z,2.14
2023-02-14T05:34:27.014Z,2.21
2023-02-14T05:36:54.972Z,2.33
2023-02-14T05:39:24.373Z,2.37
2023-02-14T05:41:51.662Z,2.38
2023-02-14T05:44:19.093Z,2.22
2023-02-14T05:46:46.401Z,2.04
2023-02-14T05:49:13.959Z,2.15
2023-02-14T05:51:41.298Z,1.99
2023-02-14T05:54:10.866Z,2.06
2023-02-14T05:56:38.479Z,1.98
2023-02-14T05:59:05.865Z,1.94
2023-02-14T06:01:33.256Z,1.92
2023-02-14T06:04:00.730Z,1.86
2023-02-14T06:06:28.083Z,1.76
2023-02-14T06:08:55.514Z,1.77
2023-02-14T06:11:22.833Z,1.75
2023-02-14T06:13:50.233Z,1.79
2023-02-14T06:16:18.479Z,1.72
2023-02-14T06:18:45.782Z,1.74
2023-02-14T06:21:13.180Z,1.81
2023-02-14T06:23:40.662Z,1.87
2023-02-14T06:26:08.070Z,1.89
2023-02-14T06:28:35.414Z,2.00
2023-02-14T06:31:03.413Z,2.05
2023-02-14T06:33:32.376Z,2.14
2023-02-14T06:35:59.840Z,2.09
2023-02-14T06:38:27.185Z,2.14
2023-02-14T06:40:54.629Z,2.27
2023-02-14T06:43:22.060Z,2.25
2023-02-14T06:45:49.450Z,2.31
2023-02-14T06:48:16.884Z,2.56
2023-02-14T06:50:44.259Z,3.25
2023-02-14T06:53:11.663Z,4.06
2023-02-14T06:55:43.781Z,4.74
2023-02-14T06:58:11.562Z,5.13
2023-02-14T07:00:39.847Z,5.42
2023-02-14T07:03:08.023Z,5.56
2023-02-14T07:05:35.812Z,5.23
2023-02-14T07:08:03.417Z,5.33
2023-02-14T07:10:30.736Z,5.29
2023-02-14T07:12:58.092Z,5.25
2023-02-14T07:15:25.482Z,5.89
2023-02-14T07:17:53.044Z,6.34
2023-02-14T07:20:20.397Z,6.00
2023-02-14T07:22:49.834Z,5.72
2023-02-14T07:25:17.644Z,5.39
2023-02-14T07:27:45.004Z,5.43
2023-02-14T07:30:12.916Z,6.06
2023-02-14T07:32:42.034Z,6.72
2023-02-14T07:35:09.972Z,7.52
2023-02-14T07:37:37.375Z,7.29
2023-02-14T07:40:08.764Z,7.38
2023-02-14T07:42:41.603Z,7.56
2023-02-14T07:45:20.764Z,7.54
2023-02-14T07:47:50.696Z,8.22
2023-02-14T07:50:18.968Z,8.91
2023-02-14T07:52:46.589Z,9.72
2023-02-14T07:55:14.315Z,10.47
2023-02-14T07:57:41.808Z,10.66
2023-02-14T08:00:09.689Z,10.96
2023-02-14T08:02:40.150Z,11.35
2023-02-14T08:05:07.984Z,12.03
2023-02-14T08:07:35.592Z,13.02
2023-02-14T08:10:02.917Z,13.80
2023-02-14T08:12:48.514Z,12.66
2023-02-14T08:15:35.389Z,11.46
2023-02-14T08:18:02.943Z,12.58
2023-02-14T08:20:30.213Z,12.40
2023-02-14T08:22:58.260Z,13.43
2023-02-14T08:25:43.918Z,12.89
2023-02-14T08:28:11.473Z,13.97
2023-02-14T08:30:38.878Z,14.12
2023-02-14T08:33:07.286Z,14.88
2023-02-14T08:35:35.653Z,14.45
2023-02-14T08:38:03.754Z,15.52
2023-02-14T08:40:31.523Z,16.78
2023-02-14T08:42:58.921Z,17.37
2023-02-14T08:45:26.495Z,18.69
2023-02-14T08:47:53.963Z,18.14
2023-02-14T08:50:21.477Z,17.40
2023-02-14T08:52:49.607Z,17.73
2023-02-14T08:55:17.431Z,18.16
2023-02-14T08:57:44.886Z,18.12
2023-02-14T09:00:32.125Z,18.21
2023-02-14T09:02:59.999Z,18.41
2023-02-14T09:05:27.811Z,18.87
2023-02-14T09:07:56.653Z,18.56
2023-02-14T09:10:26.856Z,18.60
2023-02-14T09:12:54.300Z,19.37
2023-02-14T09:15:21.694Z,19.42
2023-02-14T09:17:49.061Z,19.61
2023-02-14T09:20:16.555Z,19.28
2023-02-14T09:22:44.096Z,20.25
2023-02-14T09:25:12.753Z,20.01
2023-02-14T09:27:40.308Z,19.62
2023-02-14T09:30:09.387Z,19.92
2023-02-14T09:32:36.857Z,20.18
2023-02-14T09:35:04.307Z,21.85
2023-02-14T09:37:50.016Z,19.55
2023-02-14T09:40:20.114Z,19.71
2023-02-14T09:42:53.377Z,20.49
2023-02-14T09:45:24.947Z,20.99
2023-02-14T09:48:07.539Z,20.19
2023-02-14T09:50:54.630Z,20.95
2023-02-14T09:53:25.319Z,20.38
2023-02-14T09:56:17.117Z,20.14
2023-02-14T09:59:05.012Z,20.00
2023-02-14T10:01:54.459Z,19.11
2023-02-14T10:04:30.688Z,18.93
2023-02-14T10:07:12.192Z,19.02
2023-02-14T10:09:54.573Z,18.47
2023-02-14T10:12:34.176Z,18.52
2023-02-14T10:15:10.752Z,17.98
2023-02-14T10:17:47.416Z,17.61
2023-02-14T10:20:21.933Z,18.19
2023-02-14T10:23:05.603Z,17.69
2023-02-14T10:25:48.407Z,17.43
2023-02-14T10:28:28.247Z,17.48
2023-02-14T10:31:13.752Z,17.26
2023-02-14T10:33:45.353Z,17.97
2023-02-14T10:36:32.109Z,17.46
2023-02-14T10:39:12.733Z,16.98
2023-02-14T10:41:40.033Z,17.83
2023-02-14T10:44:28.917Z,17.17
2023-02-14T10:47:07.160Z,17.11
2023-02-14T10:49:47.474Z,16.49
2023-02-14T10:52:25.885Z,16.26
2023-02-14T10:54:56.969Z,15.97
2023-02-14T10:57:31.531Z,15.89
2023-02-14T11:00:06.837Z,15.69
2023-02-14T11:02:40.089Z,15.68
2023-02-14T11:05:10.422Z,15.86
2023-02-14T11:07:37.747Z,15.97
2023-02-14T11:10:14.006Z,16.17
2023-02-14T11:12:41.881Z,16.59
2023-02-14T11:15:09.264Z,17.04
2023-02-14T11:17:37.466Z,16.61
2023-02-14T11:20:22.327Z,16.45
2023-02-14T11:22:51.458Z,15.97
2023-02-14T11:25:23.501Z,16.11
2023-02-14T11:27:53.761Z,16.03
2023-02-14T11:30:28.042Z,15.95
2023-02-14T11:32:56.391Z,16.10
2023-02-14T11:35:30.390Z,16.43
2023-02-14T11:37:58.333Z,16.39
2023-02-14T11:40:27.592Z,16.43
2023-02-14T11:43:12.861Z,16.61
2023-02-14T11:45:43.899Z,16.33
2023-02-14T11:48:36.558Z,16.22
2023-02-14T11:51:15.669Z,16.10
2023-02-14T11:53:53.512Z,16.14
2023-02-14T11:56:22.276Z,16.05
2023-02-14T11:58:58.640Z,15.91
2023-02-14T12:01:30.039Z,16.13
2023-02-14T12:04:01.822Z,16.29
2023-02-14T12:06:32.375Z,16.68
2023-02-14T12:09:23.980Z,17.20
2023-02-14T12:12:19.249Z,17.21
2023-02-14T12:14:46.893Z,17.02
2023-02-14T12:17:37.641Z,17.07
2023-02-14T12:20:14.156Z,16.92
2023-02-14T12:22:49.851Z,17.12
2023-02-14T12:25:25.598Z,17.46
2023-02-14T12:28:03.492Z,17.06
2023-02-14T12:30:35.241Z,17.10
2023-02-14T12:33:04.970Z,17.36
2023-02-14T12:35:54.632Z,16.96
2023-02-14T12:38:47.203Z,17.43
2023-02-14T12:41:17.438Z,17.63
2023-02-14T12:43:56.685Z,17.35
2023-02-14T12:46:41.425Z,17.20
2023-02-14T12:49:27.657Z,17.20
2023-02-14T12:52:15.885Z,17.26
2023-02-14T12:54:55.614Z,17.19
2023-02-14T12:57:35.092Z,17.32
2023-02-14T13:00:24.194Z,17.39
2023-02-14T13:03:07.066Z,17.44
2023-02-14T13:05:42.682Z,17.60
2023-02-14T13:08:34.419Z,17.64
2023-02-14T13:11:16.460Z,17.79
2023-02-14T13:13:52.741Z,17.57
2023-02-14T13:16:44.121Z,17.86
2023-02-14T13:19:50.033Z,17.60
2023-02-14T13:22:21.999Z,17.57
2023-02-14T13:24:58.565Z,17.64
2023-02-14T13:27:34.488Z,17.63
2023-02-14T13:30:12.102Z,17.28
2023-02-14T13:32:42.408Z,17.10
2023-02-14T13:35:17.418Z,17.15
2023-02-14T13:37:52.820Z,17.40
2023-02-14T13:40:26.340Z,17.24
2023-02-14T13:42:56.968Z,17.20
2023-02-14T13:45:32.466Z,16.90
2023-02-14T13:48:22.228Z,17.09
2023-02-14T13:51:06.231Z,17.30
2023-02-14T13:53:45.673Z,17.21
2023-02-14T13:56:13.220Z,17.03
2023-02-14T13:59:04.498Z,17.27
2023-02-14T14:01:42.843Z,17.34
2023-02-14T14:04:28.438Z,17.29
2023-02-14T14:07:04.791Z,17.13
2023-02-14T14:09:44.463Z,17.26
2023-02-14T14:12:27.073Z,17.32
2023-02-14T14:15:06.381Z,16.98
2023-02-14T14:17:40.400Z,16.97
2023-02-14T14:20:16.391Z,16.78
2023-02-14T14:22:58.671Z,16.88
2023-02-14T14:25:31.757Z,16.69
2023-02-14T14:28:00.369Z,16.55
2023-02-14T14:30:32.993Z,16.53
2023-02-14T14:33:26.155Z,16.37
2023-02-14T14:35:54.365Z,16.44
2023-02-14T14:38:22.453Z,16.54
2023-02-14T14:40:51.331Z,16.42
2023-02-14T14:43:31.581Z,16.25
2023-02-14T14:46:02.267Z,16.12
2023-02-14T14:48:38.874Z,16.25
2023-02-14T14:51:08.962Z,16.02
2023-02-14T14:53:59.989Z,16.00
2023-02-14T14:56:31.154Z,16.05
2023-02-14T14:59:15.376Z,16.04
2023-02-14T15:01:44.140Z,16.02
2023-02-14T15:04:16.003Z,16.08
2023-02-14T15:06:43.688Z,16.00
2023-02-14T15:09:16.905Z,16.11
2023-02-14T15:12:05.008Z,15.97
2023-02-14T15:14:36.390Z,15.94
2023-02-14T15:17:13.207Z,15.73
2023-02-14T15:19:44.210Z,15.74
2023-02-14T15:22:19.705Z,15.78
2023-02-14T15:24:48.100Z,15.70
2023-02-14T15:27:18.141Z,15.68
2023-02-14T15:30:00.420Z,15.57
2023-02-14T15:32:32.049Z,15.58
2023-02-14T15:35:03.152Z,15.40
2023-02-14T15:37:32.319Z,15.31
2023-02-14T15:40:01.734Z,15.48
2023-02-14T15:42:33.060Z,15.35
2023-02-14T15:45:19.243Z,15.30
2023-02-14T15:47:49.433Z,15.16
2023-02-14T15:50:24.395Z,15.22
2023-02-14T15:53:02.379Z,15.31
2023-02-14T15:55:31.490Z,15.37
2023-02-14T15:58:06.868Z,15.24
2023-02-14T16:00:35.061Z,15.27
2023-02-14T16:03:07.269Z,14.99
2023-02-14T16:05:34.783Z,14.80
2023-02-14T16:08:08.048Z,14.73
2023-02-14T16:10:37.793Z,14.72
2023-02-14T16:13:18.622Z,14.55
2023-02-14T16:16:06.603Z,14.46
2023-02-14T16:18:44.011Z,14.39
2023-02-14T16:21:15.909Z,14.27
2023-02-14T16:23:46.052Z,14.11
2023-02-14T16:26:14.180Z,13.94
2023-02-14T16:28:43.319Z,13.89
2023-02-14T16:31:16.457Z,13.81
2023-02-14T16:33:44.078Z,13.59
2023-02-14T16:36:30.010Z,13.57
2023-02-14T16:38:58.256Z,13.55
2023-02-14T16:41:28.207Z,13.51
2023-02-14T16:43:59.686Z,13.50
2023-02-14T16:46:31.647Z,13.35
2023-02-14T16:48:58.911Z,13.20
2023-02-14T16:51:29.452Z,13.11
2023-02-14T16:54:00.369Z,12.91
2023-02-14T16:56:33.862Z,12.89
2023-02-14T16:59:01.229Z,12.78
2023-02-14T17:01:28.782Z,12.65
2023-02-14T17:03:56.121Z,12.57
2023-02-14T17:06:27.650Z,12.50
2023-02-14T17:08:57.156Z,12.39
2023-02-14T17:11:26.297Z,12.37
2023-02-14T17:13:54.610Z,12.43
2023-02-14T17:16:22.516Z,12.36
2023-02-14T17:18:52.301Z,12.27
2023-02-14T17:21:21.887Z,12.18
2023-02-14T17:23:49.755Z,12.17
2023-02-14T17:26:18.801Z,12.17
2023-02-14T17:28:46.666Z,12.14
2023-02-14T17:31:14.371Z,12.03
2023-02-14T17:33:41.785Z,11.84
2023-02-14T17:36:12.235Z,11.70
2023-02-14T17:38:40.569Z,11.60
2023-02-14T17:41:23.605Z,11.54
2023-02-14T17:43:52.995Z,11.55
2023-02-14T17:46:21.058Z,11.44
2023-02-14T17:48:49.264Z,11.36
2023-02-14T17:51:20.290Z,11.29
2023-02-14T17:53:48.474Z,11.21
2023-02-14T17:56:22.014Z,11.17
2023-02-14T17:58:51.536Z,11.11
2023-02-14T18:01:22.687Z,11.04
2023-02-14T18:03:52.069Z,10.94
2023-02-14T18:06:19.976Z,10.85
2023-02-14T18:08:49.901Z,10.79
2023-02-14T18:11:19.618Z,10.70
2023-02-14T18:13:47.108Z,10.64
2023-02-14T18:16:18.053Z,10.51
2023-02-14T18:18:45.691Z,10.29
2023-02-14T18:21:15.388Z,10.18
2023-02-14T18:23:43.358Z,10.10
2023-02-14T18:26:13.258Z,10.05
2023-02-14T18:28:41.158Z,9.96
2023-02-14T18:31:14.549Z,9.91
2023-02-14T18:33:42.509Z,9.86
2023-02-14T18:36:15.868Z,9.87
2023-02-14T18:38:45.305Z,9.91
2023-02-14T18:41:15.500Z,9.95
2023-02-14T18:43:44.577Z,9.86
2023-02-14T18:46:15.065Z,9.83
2023-02-14T18:48:49.546Z,9.68
2023-02-14T18:51:23.622Z,9.67
2023-02-14T18:53:52.347Z,9.64
2023-02-14T18:56:23.026Z,9.62
2023-02-14T18:58:53.846Z,9.56
2023-02-14T19:01:24.236Z,9.52
2023-02-14T19:03:52.951Z,9.40
2023-02-14T19:06:22.174Z,9.26
2023-02-14T19:08:49.566Z,9.14
2023-02-14T19:11:19.987Z,9.15
2023-02-14T19:13:50.033Z,9.15
2023-02-14T19:16:20.834Z,9.03
2023-02-14T19:18:49.811Z,8.92
2023-02-14T19:21:20.501Z,8.87
2023-02-14T19:23:48.524Z,8.84
2023-02-14T19:26:18.173Z,8.84
2023-02-14T19:28:47.234Z,8.80
2023-02-14T19:31:15.563Z,8.78
2023-02-14T19:33:45.321Z,8.69
2023-02-14T19:36:17.519Z,8.62
2023-02-14T19:38:48.213Z,8.67
2023-02-14T19:41:19.679Z,8.77
2023-02-14T19:43:48.830Z,8.76
2023-02-14T19:46:17.836Z,8.78
2023-02-14T19:48:46.208Z,8.73
2023-02-14T19:51:21.331Z,8.66
2023-02-14T19:53:49.735Z,8.61
2023-02-14T19:56:21.548Z,8.61
2023-02-14T19:58:50.319Z,8.62
2023-02-14T20:01:32.981Z,8.45
2023-02-14T20:04:00.758Z,8.39
2023-02-14T20:06:29.549Z,8.38
2023-02-14T20:08:57.393Z,8.31
2023-02-14T20:11:33.017Z,8.29
2023-02-14T20:14:01.223Z,8.26
2023-02-14T20:16:30.909Z,8.24
2023-02-14T20:19:00.478Z,8.17
2023-02-14T20:21:28.433Z,8.09
2023-02-14T20:24:01.065Z,8.08
2023-02-14T20:26:31.182Z,7.97
2023-02-14T20:29:00.222Z,7.85
2023-02-14T20:31:27.557Z,7.85
2023-02-14T20:33:56.761Z,7.77
2023-02-14T20:36:24.785Z,7.75
2023-02-14T20:38:56.492Z,7.75
2023-02-14T20:41:24.503Z,7.76
2023-02-14T20:43:52.098Z,7.64
2023-02-14T20:46:19.960Z,7.63
2023-02-14T20:48:47.593Z,7.68
2023-02-14T20:51:17.373Z,7.68
2023-02-14T20:53:46.360Z,7.65
2023-02-14T20:56:15.428Z,7.64
2023-02-14T20:58:43.227Z,7.65
2023-02-14T21:01:13.298Z,7.73
2023-02-14T21:04:01.527Z,7.71
2023-02-14T21:06:32.854Z,7.59
2023-02-14T21:09:01.583Z,7.65
2023-02-14T21:11:31.707Z,7.70
2023-02-14T21:14:01.472Z,7.70
2023-02-14T21:16:30.188Z,7.67
2023-02-14T21:18:59.646Z,7.62
2023-02-14T21:21:35.463Z,7.53
2023-02-14T21:24:11.948Z,7.46
2023-02-14T21:26:39.594Z,7.49
2023-02-14T21:29:08.086Z,7.51
2023-02-14T21:31:36.282Z,7.48
2023-02-14T21:34:04.783Z,7.52
2023-02-14T21:36:35.988Z,7.58
2023-02-14T21:39:04.956Z,7.58
2023-02-14T21:41:32.904Z,7.52
2023-02-14T21:44:02.535Z,7.45
2023-02-14T21:46:36.034Z,7.52
2023-02-14T21:49:23.459Z,7.50
2023-02-14T21:51:51.033Z,7.31
2023-02-14T21:54:18.426Z,7.31
2023-02-14T21:56:45.995Z,7.30
2023-02-14T21:59:13.854Z,7.32
2023-02-14T22:01:42.820Z,7.29
2023-02-14T22:04:12.259Z,7.18
2023-02-14T22:06:41.956Z,7.16
2023-02-14T22:09:12.302Z,7.19
2023-02-14T22:11:39.994Z,7.17
2023-02-14T22:14:07.327Z,7.11
2023-02-14T22:16:36.806Z,6.98
2023-02-14T22:19:05.263Z,6.91
2023-02-14T22:21:33.611Z,6.89
2023-02-14T22:24:01.550Z,6.92
2023-02-14T22:26:31.148Z,6.93
2023-02-14T22:29:00.449Z,6.97
2023-02-14T22:31:33.260Z,6.94
2023-02-14T22:34:00.617Z,6.88
2023-02-14T22:36:27.966Z,6.90
2023-02-14T22:38:55.346Z,6.84
2023-02-14T22:41:24.431Z,6.88
2023-02-14T22:43:53.218Z,6.89
2023-02-14T22:46:28.261Z,6.83
2023-02-14T22:48:56.677Z,6.90
2023-02-14T22:51:28.965Z,6.86
2023-02-14T22:54:02.041Z,6.82
2023-02-14T22:56:35.550Z,6.83
2023-02-14T22:59:06.234Z,6.79
2023-02-14T23:01:35.183Z,6.78
2023-02-14T23:04:03.695Z,6.80
2023-02-14T23:06:33.156Z,6.74
2023-02-14T23:09:02.126Z,6.71
2023-02-14T23:11:32.237Z,6.67
2023-02-14T23:14:18.702Z,6.65
2023-02-14T23:17:04.942Z,6.44
2023-02-14T23:19:53.444Z,6.42
2023-02-14T23:22:27.038Z,6.39
2023-02-14T23:24:59.678Z,6.36
2023-02-14T23:27:34.498Z,6.35
2023-02-14T23:30:03.801Z,6.28
2023-02-14T23:32:31.238Z,6.34
2023-02-14T23:34:58.988Z,6.33
2023-02-14T23:37:26.420Z,6.29
2023-02-14T23:39:53.768Z,6.28
2023-02-14T23:42:21.157Z,6.27
2023-02-14T23:44:50.293Z,6.20
2023-02-14T23:47:17.768Z,6.17
2023-02-14T23:49:45.986Z,6.15
2023-02-14T23:52:13.981Z,6.10
2023-02-14T23:54:41.493Z,6.06
2023-02-14T23:57:09.041Z,6.10
2023-02-14T23:59:36.479Z,6.08
